sensor_id;sensor_type;location;lat;lon;timestamp;temperature;humidity
36856;DHT22;22788;51.434;6.786;2024-02-28T00:00:11;7.00;99.90
36856;DHT22;22788;51.434;6.786;2024-02-28T00:02:37;7.00;99.90
36856;DHT22;22788;51.434;6.786;2024-02-28T00:05:02;7.00;99.90
36856;DHT22;22788;51.434;6.786;2024-02-28T00:07:28;7.10;99.90
36856;DHT22;22788;51.434;6.786;2024-02-28T00:09:56;7.00;99.90
36856;DHT22;22788;51.434;6.786;2024-02-28T00:12:21;7.10;99.90
36856;DHT22;22788;51.434;6.786;2024-02-28T00:14:48;7.10;99.90
36856;DHT22;22788;51.434;6.786;2024-02-28T00:17:14;7.00;99.90
36856;DHT22;22788;51.434;6.786;2024-02-28T00:19:39;7.00;99.90
36856;DHT22;22788;51.434;6.786;2024-02-28T00:22:05;7.00;99.90
36856;DHT22;22788;51.434;6.786;2024-02-28T00:24:31;7.00;99.90
36856;DHT22;22788;51.434;6.786;2024-02-28T00:26:56;7.00;99.90
36856;DHT22;22788;51.434;6.786;2024-02-28T00:29:22;7.00;99.90
36856;DHT22;22788;51.434;6.786;2024-02-28T00:31:49;7.00;99.90
36856;DHT22;22788;51.434;6.786;2024-02-28T00:34:15;6.90;99.90
36856;DHT22;22788;51.434;6.786;2024-02-28T00:36:40;6.90;99.90
36856;DHT22;22788;51.434;6.786;2024-02-28T00:39:06;6.90;99.90
36856;DHT22;22788;51.434;6.786;2024-02-28T00:41:31;7.00;99.90
36856;DHT22;22788;51.434;6.786;2024-02-28T00:43:57;6.90;99.90
36856;DHT22;22788;51.434;6.786;2024-02-28T00:46:22;7.00;99.90
36856;DHT22;22788;51.434;6.786;2024-02-28T00:48:50;6.90;99.90
36856;DHT22;22788;51.434;6.786;2024-02-28T00:51:15;6.90;99.90
36856;DHT22;22788;51.434;6.786;2024-02-28T00:53:41;6.90;99.90
36856;DHT22;22788;51.434;6.786;2024-02-28T00:56:06;6.90;99.90
36856;DHT22;22788;51.434;6.786;2024-02-28T00:58:32;6.90;99.90
36856;DHT22;22788;51.434;6.786;2024-02-28T01:00:58;6.90;99.90
36856;DHT22;22788;51.434;6.786;2024-02-28T01:03:23;6.90;99.90
36856;DHT22;22788;51.434;6.786;2024-02-28T01:05:50;6.90;99.90
36856;DHT22;22788;51.434;6.786;2024-02-28T01:08:16;6.80;99.90
36856;DHT22;22788;51.434;6.786;2024-02-28T01:10:42;6.80;99.90
36856;DHT22;22788;51.434;6.786;2024-02-28T01:13:07;6.90;99.90
36856;DHT22;22788;51.434;6.786;2024-02-28T01:15:33;6.80;99.90
36856;DHT22;22788;51.434;6.786;2024-02-28T01:17:59;6.90;99.90
36856;DHT22;22788;51.434;6.786;2024-02-28T01:20:24;6.80;99.90
36856;DHT22;22788;51.434;6.786;2024-02-28T01:22:51;6.80;99.90
36856;DHT22;22788;51.434;6.786;2024-02-28T01:25:17;6.90;99.90
36856;DHT22;22788;51.434;6.786;2024-02-28T01:27:42;6.80;99.90
36856;DHT22;22788;51.434;6.786;2024-02-28T01:30:08;6.80;99.90
36856;DHT22;22788;51.434;6.786;2024-02-28T01:32:34;6.80;99.90
36856;DHT22;22788;51.434;6.786;2024-02-28T01:35:00;6.90;99.90
36856;DHT22;22788;51.434;6.786;2024-02-28T01:37:25;6.80;99.90
36856;DHT22;22788;51.434;6.786;2024-02-28T01:39:52;6.90;99.90
36856;DHT22;22788;51.434;6.786;2024-02-28T01:42:18;6.90;99.90
36856;DHT22;22788;51.434;6.786;2024-02-28T01:44:45;6.90;99.90
36856;DHT22;22788;51.434;6.786;2024-02-28T01:47:11;6.80;99.90
36856;DHT22;22788;51.434;6.786;2024-02-28T01:49:37;6.80;99.90
36856;DHT22;22788;51.434;6.786;2024-02-28T01:52:04;6.80;99.90
36856;DHT22;22788;51.434;6.786;2024-02-28T01:54:31;6.80;99.90
36856;DHT22;22788;51.434;6.786;2024-02-28T01:56:59;6.70;99.90
36856;DHT22;22788;51.434;6.786;2024-02-28T01:59:26;6.70;99.90
36856;DHT22;22788;51.434;6.786;2024-02-28T02:01:53;6.70;99.90
36856;DHT22;22788;51.434;6.786;2024-02-28T02:04:19;6.70;99.90
36856;DHT22;22788;51.434;6.786;2024-02-28T02:06:45;6.70;99.90
36856;DHT22;22788;51.434;6.786;2024-02-28T02:09:11;6.70;99.90
36856;DHT22;22788;51.434;6.786;2024-02-28T02:11:37;6.70;99.90
36856;DHT22;22788;51.434;6.786;2024-02-28T02:14:05;6.80;99.90
36856;DHT22;22788;51.434;6.786;2024-02-28T02:16:30;6.80;99.90
36856;DHT22;22788;51.434;6.786;2024-02-28T02:18:56;6.80;99.90
36856;DHT22;22788;51.434;6.786;2024-02-28T02:21:23;6.80;99.90
36856;DHT22;22788;51.434;6.786;2024-02-28T02:23:50;6.80;99.90
36856;DHT22;22788;51.434;6.786;2024-02-28T02:26:16;6.80;99.90
36856;DHT22;22788;51.434;6.786;2024-02-28T02:28:42;6.70;99.90
36856;DHT22;22788;51.434;6.786;2024-02-28T02:31:08;6.70;99.90
36856;DHT22;22788;51.434;6.786;2024-02-28T02:33:33;6.60;99.90
36856;DHT22;22788;51.434;6.786;2024-02-28T02:35:59;6.70;99.90
36856;DHT22;22788;51.434;6.786;2024-02-28T02:38:24;6.70;99.90
36856;DHT22;22788;51.434;6.786;2024-02-28T02:40:52;6.70;99.90
36856;DHT22;22788;51.434;6.786;2024-02-28T02:43:17;6.70;99.90
36856;DHT22;22788;51.434;6.786;2024-02-28T02:45:43;6.60;99.90
36856;DHT22;22788;51.434;6.786;2024-02-28T02:48:09;6.60;99.90
36856;DHT22;22788;51.434;6.786;2024-02-28T02:50:35;6.60;99.90
36856;DHT22;22788;51.434;6.786;2024-02-28T02:53:00;6.60;99.90
36856;DHT22;22788;51.434;6.786;2024-02-28T02:55:26;6.60;99.90
36856;DHT22;22788;51.434;6.786;2024-02-28T02:57:53;6.60;99.90
36856;DHT22;22788;51.434;6.786;2024-02-28T03:00:19;6.60;99.90
36856;DHT22;22788;51.434;6.786;2024-02-28T03:02:45;6.60;99.90
36856;DHT22;22788;51.434;6.786;2024-02-28T03:05:10;6.60;99.90
36856;DHT22;22788;51.434;6.786;2024-02-28T03:07:36;6.60;99.90
36856;DHT22;22788;51.434;6.786;2024-02-28T03:10:02;6.60;99.90
36856;DHT22;22788;51.434;6.786;2024-02-28T03:12:27;6.60;99.90
36856;DHT22;22788;51.434;6.786;2024-02-28T03:14:54;6.60;99.90
36856;DHT22;22788;51.434;6.786;2024-02-28T03:17:20;6.60;99.90
36856;DHT22;22788;51.434;6.786;2024-02-28T03:19:46;6.50;99.90
36856;DHT22;22788;51.434;6.786;2024-02-28T03:22:11;6.50;99.90
36856;DHT22;22788;51.434;6.786;2024-02-28T03:24:37;6.50;99.90
36856;DHT22;22788;51.434;6.786;2024-02-28T03:27:02;6.50;99.90
36856;DHT22;22788;51.434;6.786;2024-02-28T03:29:28;6.50;99.90
36856;DHT22;22788;51.434;6.786;2024-02-28T03:31:55;6.50;99.90
36856;DHT22;22788;51.434;6.786;2024-02-28T03:34:21;6.50;99.90
36856;DHT22;22788;51.434;6.786;2024-02-28T03:36:47;6.50;99.90
36856;DHT22;22788;51.434;6.786;2024-02-28T03:39:13;6.50;99.90
36856;DHT22;22788;51.434;6.786;2024-02-28T03:41:38;6.50;99.90
36856;DHT22;22788;51.434;6.786;2024-02-28T03:44:04;6.50;99.90
36856;DHT22;22788;51.434;6.786;2024-02-28T03:46:30;6.50;99.90
36856;DHT22;22788;51.434;6.786;2024-02-28T03:48:57;6.50;99.90
36856;DHT22;22788;51.434;6.786;2024-02-28T03:51:23;6.50;99.90
36856;DHT22;22788;51.434;6.786;2024-02-28T03:53:48;6.60;99.90
36856;DHT22;22788;51.434;6.786;2024-02-28T03:56:21;6.60;99.90
36856;DHT22;22788;51.434;6.786;2024-02-28T03:58:47;6.50;99.90
36856;DHT22;22788;51.434;6.786;2024-02-28T04:01:13;6.50;99.90
36856;DHT22;22788;51.434;6.786;2024-02-28T04:03:38;6.50;99.90
36856;DHT22;22788;51.434;6.786;2024-02-28T04:06:05;6.50;99.90
36856;DHT22;22788;51.434;6.786;2024-02-28T04:08:31;6.60;99.90
36856;DHT22;22788;51.434;6.786;2024-02-28T04:10:57;6.50;99.90
36856;DHT22;22788;51.434;6.786;2024-02-28T04:13:22;6.40;99.90
36856;DHT22;22788;51.434;6.786;2024-02-28T04:15:48;6.50;99.90
36856;DHT22;22788;51.434;6.786;2024-02-28T04:18:13;6.50;99.90
36856;DHT22;22788;51.434;6.786;2024-02-28T04:20:39;6.50;99.90
36856;DHT22;22788;51.434;6.786;2024-02-28T04:23:06;6.40;99.90
36856;DHT22;22788;51.434;6.786;2024-02-28T04:25:32;6.40;99.90
36856;DHT22;22788;51.434;6.786;2024-02-28T04:27:57;6.40;99.90
36856;DHT22;22788;51.434;6.786;2024-02-28T04:30:23;6.40;99.90
36856;DHT22;22788;51.434;6.786;2024-02-28T04:32:49;6.50;99.90
36856;DHT22;22788;51.434;6.786;2024-02-28T04:35:14;6.40;99.90
36856;DHT22;22788;51.434;6.786;2024-02-28T04:37:40;6.40;99.90
36856;DHT22;22788;51.434;6.786;2024-02-28T04:40:08;6.30;99.90
36856;DHT22;22788;51.434;6.786;2024-02-28T04:42:34;6.30;99.90
36856;DHT22;22788;51.434;6.786;2024-02-28T04:44:59;6.40;99.90
36856;DHT22;22788;51.434;6.786;2024-02-28T04:47:25;6.30;99.90
36856;DHT22;22788;51.434;6.786;2024-02-28T04:49:50;6.20;99.90
36856;DHT22;22788;51.434;6.786;2024-02-28T04:52:16;6.20;99.90
36856;DHT22;22788;51.434;6.786;2024-02-28T04:54:42;6.20;99.90
36856;DHT22;22788;51.434;6.786;2024-02-28T04:57:09;6.30;99.90
36856;DHT22;22788;51.434;6.786;2024-02-28T04:59:35;6.30;99.90
36856;DHT22;22788;51.434;6.786;2024-02-28T05:02:01;6.40;99.90
36856;DHT22;22788;51.434;6.786;2024-02-28T05:04:26;6.40;99.90
36856;DHT22;22788;51.434;6.786;2024-02-28T05:06:52;6.40;99.90
36856;DHT22;22788;51.434;6.786;2024-02-28T05:09:18;6.50;99.90
36856;DHT22;22788;51.434;6.786;2024-02-28T05:11:44;6.40;99.90
36856;DHT22;22788;51.434;6.786;2024-02-28T05:14:11;6.30;99.90
36856;DHT22;22788;51.434;6.786;2024-02-28T05:16:36;6.30;99.90
36856;DHT22;22788;51.434;6.786;2024-02-28T05:19:02;6.30;99.90
36856;DHT22;22788;51.434;6.786;2024-02-28T05:21:28;6.40;99.90
36856;DHT22;22788;51.434;6.786;2024-02-28T05:23:53;6.30;99.90
36856;DHT22;22788;51.434;6.786;2024-02-28T05:26:19;6.30;99.90
36856;DHT22;22788;51.434;6.786;2024-02-28T05:28:44;6.40;99.90
36856;DHT22;22788;51.434;6.786;2024-02-28T05:31:21;6.30;99.90
36856;DHT22;22788;51.434;6.786;2024-02-28T05:33:47;6.30;99.90
36856;DHT22;22788;51.434;6.786;2024-02-28T05:36:25;6.30;99.90
36856;DHT22;22788;51.434;6.786;2024-02-28T05:38:56;6.30;99.90
36856;DHT22;22788;51.434;6.786;2024-02-28T05:41:29;7.00;99.90
36856;DHT22;22788;51.434;6.786;2024-02-28T05:44:06;6.30;99.90
36856;DHT22;22788;51.434;6.786;2024-02-28T05:46:45;6.40;99.90
36856;DHT22;22788;51.434;6.786;2024-02-28T05:49:17;6.30;99.90
36856;DHT22;22788;51.434;6.786;2024-02-28T05:51:59;6.30;99.90
36856;DHT22;22788;51.434;6.786;2024-02-28T05:55:33;6.30;99.90
36856;DHT22;22788;51.434;6.786;2024-02-28T05:57:20;6.30;99.90
36856;DHT22;22788;51.434;6.786;2024-02-28T06:05:31;6.30;99.90
36856;DHT22;22788;51.434;6.786;2024-02-28T06:08:17;6.30;99.90
36856;DHT22;22788;51.434;6.786;2024-02-28T06:10:44;6.30;99.90
36856;DHT22;22788;51.434;6.786;2024-02-28T06:13:13;6.20;99.90
36856;DHT22;22788;51.434;6.786;2024-02-28T06:15:38;6.20;99.90
36856;DHT22;22788;51.434;6.786;2024-02-28T06:18:06;6.20;99.90
36856;DHT22;22788;51.434;6.786;2024-02-28T06:20:31;6.20;99.90
36856;DHT22;22788;51.434;6.786;2024-02-28T06:22:57;6.20;99.90
36856;DHT22;22788;51.434;6.786;2024-02-28T06:25:23;6.20;99.90
36856;DHT22;22788;51.434;6.786;2024-02-28T06:27:48;6.20;99.90
36856;DHT22;22788;51.434;6.786;2024-02-28T06:30:15;6.10;99.90
36856;DHT22;22788;51.434;6.786;2024-02-28T06:32:41;6.10;99.90
36856;DHT22;22788;51.434;6.786;2024-02-28T06:35:09;6.20;99.90
36856;DHT22;22788;51.434;6.786;2024-02-28T06:37:35;6.20;99.90
36856;DHT22;22788;51.434;6.786;2024-02-28T06:40:00;6.20;99.90
36856;DHT22;22788;51.434;6.786;2024-02-28T06:42:26;6.30;99.90
36856;DHT22;22788;51.434;6.786;2024-02-28T06:44:51;6.30;99.90
36856;DHT22;22788;51.434;6.786;2024-02-28T06:47:17;6.30;99.90
36856;DHT22;22788;51.434;6.786;2024-02-28T06:49:42;6.20;99.90
36856;DHT22;22788;51.434;6.786;2024-02-28T06:52:09;6.20;99.90
36856;DHT22;22788;51.434;6.786;2024-02-28T06:54:35;6.30;99.90
36856;DHT22;22788;51.434;6.786;2024-02-28T06:57:01;6.30;99.90
36856;DHT22;22788;51.434;6.786;2024-02-28T06:59:26;6.30;99.90
36856;DHT22;22788;51.434;6.786;2024-02-28T07:01:52;6.30;99.90
36856;DHT22;22788;51.434;6.786;2024-02-28T07:04:17;6.20;99.90
36856;DHT22;22788;51.434;6.786;2024-02-28T07:06:43;6.20;99.90
36856;DHT22;22788;51.434;6.786;2024-02-28T07:09:11;6.20;99.90
36856;DHT22;22788;51.434;6.786;2024-02-28T07:11:37;6.10;99.90
36856;DHT22;22788;51.434;6.786;2024-02-28T07:14:03;6.20;99.90
36856;DHT22;22788;51.434;6.786;2024-02-28T07:16:28;6.10;99.90
36856;DHT22;22788;51.434;6.786;2024-02-28T07:18:54;6.20;99.90
36856;DHT22;22788;51.434;6.786;2024-02-28T07:21:19;6.20;99.90
36856;DHT22;22788;51.434;6.786;2024-02-28T07:23:45;6.10;99.90
36856;DHT22;22788;51.434;6.786;2024-02-28T07:26:15;6.10;99.90
36856;DHT22;22788;51.434;6.786;2024-02-28T07:28:41;6.20;99.90
36856;DHT22;22788;51.434;6.786;2024-02-28T07:31:06;6.20;99.90
36856;DHT22;22788;51.434;6.786;2024-02-28T07:33:32;6.20;99.90
36856;DHT22;22788;51.434;6.786;2024-02-28T07:35:57;6.10;99.90
36856;DHT22;22788;51.434;6.786;2024-02-28T07:38:23;6.00;99.90
36856;DHT22;22788;51.434;6.786;2024-02-28T07:40:49;6.00;99.90
36856;DHT22;22788;51.434;6.786;2024-02-28T07:43:15;6.00;99.90
36856;DHT22;22788;51.434;6.786;2024-02-28T07:45:41;6.10;99.90
36856;DHT22;22788;51.434;6.786;2024-02-28T07:48:07;6.10;99.90
36856;DHT22;22788;51.434;6.786;2024-02-28T07:50:32;6.10;99.90
36856;DHT22;22788;51.434;6.786;2024-02-28T07:52:58;6.10;99.90
36856;DHT22;22788;51.434;6.786;2024-02-28T07:55:23;5.90;99.90
36856;DHT22;22788;51.434;6.786;2024-02-28T07:57:51;5.90;99.90
36856;DHT22;22788;51.434;6.786;2024-02-28T08:00:18;6.00;99.90
36856;DHT22;22788;51.434;6.786;2024-02-28T08:02:43;6.00;99.90
36856;DHT22;22788;51.434;6.786;2024-02-28T08:05:09;6.10;99.90
36856;DHT22;22788;51.434;6.786;2024-02-28T08:07:34;6.10;99.90
36856;DHT22;22788;51.434;6.786;2024-02-28T08:10:00;6.20;99.90
36856;DHT22;22788;51.434;6.786;2024-02-28T08:12:26;6.20;99.90
36856;DHT22;22788;51.434;6.786;2024-02-28T08:14:51;6.20;99.90
36856;DHT22;22788;51.434;6.786;2024-02-28T08:17:18;6.20;99.90
36856;DHT22;22788;51.434;6.786;2024-02-28T08:19:44;6.20;99.90
36856;DHT22;22788;51.434;6.786;2024-02-28T08:22:09;6.10;99.90
36856;DHT22;22788;51.434;6.786;2024-02-28T08:24:35;6.10;99.90
36856;DHT22;22788;51.434;6.786;2024-02-28T08:27:00;6.10;99.90
36856;DHT22;22788;51.434;6.786;2024-02-28T08:29:26;6.10;99.90
36856;DHT22;22788;51.434;6.786;2024-02-28T08:31:51;6.20;99.90
36856;DHT22;22788;51.434;6.786;2024-02-28T08:34:18;6.30;99.90
36856;DHT22;22788;51.434;6.786;2024-02-28T08:36:44;6.30;99.90
36856;DHT22;22788;51.434;6.786;2024-02-28T08:39:09;6.30;99.90
36856;DHT22;22788;51.434;6.786;2024-02-28T08:41:35;6.10;99.90
36856;DHT22;22788;51.434;6.786;2024-02-28T08:44:01;6.30;99.90
36856;DHT22;22788;51.434;6.786;2024-02-28T08:46:27;6.30;99.90
36856;DHT22;22788;51.434;6.786;2024-02-28T08:48:55;6.30;99.90
36856;DHT22;22788;51.434;6.786;2024-02-28T08:51:22;6.20;99.90
36856;DHT22;22788;51.434;6.786;2024-02-28T08:53:48;6.20;99.90
36856;DHT22;22788;51.434;6.786;2024-02-28T08:56:14;6.20;99.90
36856;DHT22;22788;51.434;6.786;2024-02-28T08:58:40;6.20;99.90
36856;DHT22;22788;51.434;6.786;2024-02-28T09:01:06;6.20;99.90
36856;DHT22;22788;51.434;6.786;2024-02-28T09:03:34;6.20;99.90
36856;DHT22;22788;51.434;6.786;2024-02-28T09:06:00;6.30;99.90
36856;DHT22;22788;51.434;6.786;2024-02-28T09:08:28;6.30;99.90
36856;DHT22;22788;51.434;6.786;2024-02-28T09:10:54;6.20;99.90
36856;DHT22;22788;51.434;6.786;2024-02-28T09:13:20;6.20;99.90
36856;DHT22;22788;51.434;6.786;2024-02-28T09:15:46;6.30;99.90
36856;DHT22;22788;51.434;6.786;2024-02-28T09:18:11;6.20;99.90
36856;DHT22;22788;51.434;6.786;2024-02-28T09:20:37;6.50;99.90
36856;DHT22;22788;51.434;6.786;2024-02-28T09:23:03;6.90;99.90
36856;DHT22;22788;51.434;6.786;2024-02-28T09:25:30;6.30;99.90
36856;DHT22;22788;51.434;6.786;2024-02-28T09:27:56;6.30;99.90
36856;DHT22;22788;51.434;6.786;2024-02-28T09:30:22;6.20;99.90
36856;DHT22;22788;51.434;6.786;2024-02-28T09:32:47;6.30;99.90
36856;DHT22;22788;51.434;6.786;2024-02-28T09:35:13;6.30;99.90
36856;DHT22;22788;51.434;6.786;2024-02-28T09:37:39;6.20;99.90
36856;DHT22;22788;51.434;6.786;2024-02-28T09:40:08;6.40;99.90
36856;DHT22;22788;51.434;6.786;2024-02-28T09:42:35;6.30;99.90
36856;DHT22;22788;51.434;6.786;2024-02-28T09:45:12;6.20;99.90
36856;DHT22;22788;51.434;6.786;2024-02-28T09:47:39;6.20;99.90
36856;DHT22;22788;51.434;6.786;2024-02-28T09:50:06;6.30;99.90
36856;DHT22;22788;51.434;6.786;2024-02-28T09:52:32;6.50;99.90
36856;DHT22;22788;51.434;6.786;2024-02-28T09:54:58;6.50;99.90
36856;DHT22;22788;51.434;6.786;2024-02-28T09:57:24;6.00;99.90
36856;DHT22;22788;51.434;6.786;2024-02-28T09:59:52;6.40;99.90
36856;DHT22;22788;51.434;6.786;2024-02-28T10:02:20;6.40;99.90
36856;DHT22;22788;51.434;6.786;2024-02-28T10:04:46;7.50;99.90
36856;DHT22;22788;51.434;6.786;2024-02-28T10:07:16;7.20;99.90
36856;DHT22;22788;51.434;6.786;2024-02-28T10:09:42;6.50;99.90
36856;DHT22;22788;51.434;6.786;2024-02-28T10:12:08;6.40;99.90
36856;DHT22;22788;51.434;6.786;2024-02-28T10:14:35;6.40;99.90
36856;DHT22;22788;51.434;6.786;2024-02-28T10:17:02;6.50;99.90
36856;DHT22;22788;51.434;6.786;2024-02-28T10:22:14;6.60;99.90
36856;DHT22;22788;51.434;6.786;2024-02-28T10:24:41;6.50;99.90
36856;DHT22;22788;51.434;6.786;2024-02-28T10:27:09;6.40;99.90
36856;DHT22;22788;51.434;6.786;2024-02-28T10:29:35;6.40;99.90
36856;DHT22;22788;51.434;6.786;2024-02-28T10:32:04;6.90;99.90
36856;DHT22;22788;51.434;6.786;2024-02-28T10:34:30;6.50;99.90
36856;DHT22;22788;51.434;6.786;2024-02-28T10:37:00;6.50;99.90
36856;DHT22;22788;51.434;6.786;2024-02-28T10:39:27;6.50;99.90
36856;DHT22;22788;51.434;6.786;2024-02-28T10:41:54;6.70;99.90
36856;DHT22;22788;51.434;6.786;2024-02-28T10:44:21;6.50;99.90
36856;DHT22;22788;51.434;6.786;2024-02-28T10:46:53;6.50;99.90
36856;DHT22;22788;51.434;6.786;2024-02-28T10:49:20;7.00;99.90
36856;DHT22;22788;51.434;6.786;2024-02-28T10:51:48;7.40;99.90
36856;DHT22;22788;51.434;6.786;2024-02-28T10:54:15;6.50;99.90
36856;DHT22;22788;51.434;6.786;2024-02-28T10:56:44;6.50;99.90
36856;DHT22;22788;51.434;6.786;2024-02-28T10:59:11;6.50;99.90
36856;DHT22;22788;51.434;6.786;2024-02-28T11:01:38;6.60;99.90
36856;DHT22;22788;51.434;6.786;2024-02-28T11:04:04;7.20;99.90
36856;DHT22;22788;51.434;6.786;2024-02-28T11:06:32;7.20;99.90
36856;DHT22;22788;51.434;6.786;2024-02-28T11:08:59;6.50;99.90
36856;DHT22;22788;51.434;6.786;2024-02-28T11:11:31;6.50;99.90
36856;DHT22;22788;51.434;6.786;2024-02-28T11:14:00;6.60;99.90
36856;DHT22;22788;51.434;6.786;2024-02-28T11:16:27;6.60;99.90
36856;DHT22;22788;51.434;6.786;2024-02-28T11:18:53;6.50;99.90
36856;DHT22;22788;51.434;6.786;2024-02-28T11:21:19;6.60;99.90
36856;DHT22;22788;51.434;6.786;2024-02-28T11:23:47;6.50;99.90
36856;DHT22;22788;51.434;6.786;2024-02-28T11:26:13;6.60;99.90
36856;DHT22;22788;51.434;6.786;2024-02-28T11:36:11;6.60;99.90
36856;DHT22;22788;51.434;6.786;2024-02-28T11:38:40;6.70;99.90
36856;DHT22;22788;51.434;6.786;2024-02-28T11:41:07;6.70;99.90
36856;DHT22;22788;51.434;6.786;2024-02-28T11:43:34;6.80;99.90
36856;DHT22;22788;51.434;6.786;2024-02-28T11:46:08;6.80;99.90
36856;DHT22;22788;51.434;6.786;2024-02-28T11:48:40;6.50;99.90
36856;DHT22;22788;51.434;6.786;2024-02-28T11:51:20;7.30;99.90
36856;DHT22;22788;51.434;6.786;2024-02-28T11:53:46;7.20;99.90
36856;DHT22;22788;51.434;6.786;2024-02-28T11:56:13;6.80;99.90
36856;DHT22;22788;51.434;6.786;2024-02-28T11:58:51;6.90;99.90
36856;DHT22;22788;51.434;6.786;2024-02-28T12:01:17;7.40;99.90
36856;DHT22;22788;51.434;6.786;2024-02-28T12:03:46;6.90;99.90
36856;DHT22;22788;51.434;6.786;2024-02-28T12:06:34;7.00;99.90
36856;DHT22;22788;51.434;6.786;2024-02-28T12:09:00;7.00;99.90
36856;DHT22;22788;51.434;6.786;2024-02-28T12:11:27;7.00;99.90
36856;DHT22;22788;51.434;6.786;2024-02-28T12:13:54;7.00;99.90
36856;DHT22;22788;51.434;6.786;2024-02-28T12:16:22;7.10;99.90
36856;DHT22;22788;51.434;6.786;2024-02-28T12:18:48;7.20;99.90
36856;DHT22;22788;51.434;6.786;2024-02-28T12:21:13;7.20;99.90
36856;DHT22;22788;51.434;6.786;2024-02-28T12:23:39;7.10;99.90
36856;DHT22;22788;51.434;6.786;2024-02-28T12:26:05;7.10;99.90
36856;DHT22;22788;51.434;6.786;2024-02-28T12:28:31;7.10;99.90
36856;DHT22;22788;51.434;6.786;2024-02-28T12:30:57;7.10;99.90
36856;DHT22;22788;51.434;6.786;2024-02-28T12:33:23;7.20;99.90
36856;DHT22;22788;51.434;6.786;2024-02-28T12:35:48;7.30;99.90
36856;DHT22;22788;51.434;6.786;2024-02-28T12:38:14;7.30;99.90
36856;DHT22;22788;51.434;6.786;2024-02-28T12:40:39;7.30;99.90
36856;DHT22;22788;51.434;6.786;2024-02-28T12:43:05;7.30;99.90
36856;DHT22;22788;51.434;6.786;2024-02-28T12:45:34;7.30;99.90
36856;DHT22;22788;51.434;6.786;2024-02-28T12:48:00;7.30;99.90
36856;DHT22;22788;51.434;6.786;2024-02-28T12:50:25;7.40;99.90
36856;DHT22;22788;51.434;6.786;2024-02-28T12:52:51;7.40;99.90
36856;DHT22;22788;51.434;6.786;2024-02-28T12:55:17;7.40;99.90
36856;DHT22;22788;51.434;6.786;2024-02-28T12:57:42;7.40;99.90
36856;DHT22;22788;51.434;6.786;2024-02-28T13:00:08;7.40;99.90
36856;DHT22;22788;51.434;6.786;2024-02-28T13:02:35;7.40;99.90
36856;DHT22;22788;51.434;6.786;2024-02-28T13:05:01;7.40;99.90
36856;DHT22;22788;51.434;6.786;2024-02-28T13:07:26;7.50;99.90
36856;DHT22;22788;51.434;6.786;2024-02-28T13:09:52;7.60;99.90
36856;DHT22;22788;51.434;6.786;2024-02-28T13:12:18;7.60;99.90
36856;DHT22;22788;51.434;6.786;2024-02-28T13:14:43;7.50;99.90
36856;DHT22;22788;51.434;6.786;2024-02-28T13:17:09;7.60;99.90
36856;DHT22;22788;51.434;6.786;2024-02-28T13:19:36;7.60;99.90
36856;DHT22;22788;51.434;6.786;2024-02-28T13:22:10;7.60;99.90
36856;DHT22;22788;51.434;6.786;2024-02-28T13:24:39;7.70;99.90
36856;DHT22;22788;51.434;6.786;2024-02-28T13:27:05;7.70;99.90
36856;DHT22;22788;51.434;6.786;2024-02-28T13:29:30;7.60;99.90
36856;DHT22;22788;51.434;6.786;2024-02-28T13:31:59;7.80;99.90
36856;DHT22;22788;51.434;6.786;2024-02-28T13:34:24;7.80;99.90
36856;DHT22;22788;51.434;6.786;2024-02-28T13:36:51;7.80;99.90
36856;DHT22;22788;51.434;6.786;2024-02-28T13:39:17;7.80;99.90
36856;DHT22;22788;51.434;6.786;2024-02-28T13:41:42;7.70;99.90
36856;DHT22;22788;51.434;6.786;2024-02-28T13:44:08;7.80;99.90
36856;DHT22;22788;51.434;6.786;2024-02-28T13:46:34;7.90;99.90
36856;DHT22;22788;51.434;6.786;2024-02-28T13:48:59;7.90;99.90
36856;DHT22;22788;51.434;6.786;2024-02-28T13:51:25;7.90;99.90
36856;DHT22;22788;51.434;6.786;2024-02-28T13:53:52;7.90;99.90
36856;DHT22;22788;51.434;6.786;2024-02-28T13:56:17;7.90;99.90
36856;DHT22;22788;51.434;6.786;2024-02-28T13:58:43;7.90;99.90
36856;DHT22;22788;51.434;6.786;2024-02-28T14:01:09;7.90;99.90
36856;DHT22;22788;51.434;6.786;2024-02-28T14:03:34;8.00;99.90
36856;DHT22;22788;51.434;6.786;2024-02-28T14:06:00;7.90;99.90
36856;DHT22;22788;51.434;6.786;2024-02-28T14:08:26;8.10;99.90
36856;DHT22;22788;51.434;6.786;2024-02-28T14:10:53;8.10;99.90
36856;DHT22;22788;51.434;6.786;2024-02-28T14:13:18;8.00;99.90
36856;DHT22;22788;51.434;6.786;2024-02-28T14:15:44;8.00;99.90
36856;DHT22;22788;51.434;6.786;2024-02-28T14:18:09;8.00;99.90
36856;DHT22;22788;51.434;6.786;2024-02-28T14:20:35;8.00;99.90
36856;DHT22;22788;51.434;6.786;2024-02-28T14:23:01;8.00;99.90
36856;DHT22;22788;51.434;6.786;2024-02-28T14:25:27;8.10;99.90
36856;DHT22;22788;51.434;6.786;2024-02-28T14:27:55;8.10;99.90
36856;DHT22;22788;51.434;6.786;2024-02-28T14:30:20;8.10;99.90
36856;DHT22;22788;51.434;6.786;2024-02-28T14:32:46;8.20;99.90
36856;DHT22;22788;51.434;6.786;2024-02-28T14:35:12;8.10;99.90
36856;DHT22;22788;51.434;6.786;2024-02-28T14:37:38;8.40;99.90
36856;DHT22;22788;51.434;6.786;2024-02-28T14:40:05;8.10;99.90
36856;DHT22;22788;51.434;6.786;2024-02-28T14:42:31;8.10;99.90
36856;DHT22;22788;51.434;6.786;2024-02-28T14:44:59;8.10;99.90
36856;DHT22;22788;51.434;6.786;2024-02-28T14:47:24;8.20;99.90
36856;DHT22;22788;51.434;6.786;2024-02-28T14:49:50;8.30;99.90
36856;DHT22;22788;51.434;6.786;2024-02-28T14:52:15;8.30;99.90
36856;DHT22;22788;51.434;6.786;2024-02-28T14:54:41;8.30;99.90
36856;DHT22;22788;51.434;6.786;2024-02-28T14:57:07;9.10;99.90
36856;DHT22;22788;51.434;6.786;2024-02-28T14:59:32;8.30;99.90
36856;DHT22;22788;51.434;6.786;2024-02-28T15:01:59;8.30;99.90
36856;DHT22;22788;51.434;6.786;2024-02-28T15:04:25;8.40;99.90
36856;DHT22;22788;51.434;6.786;2024-02-28T15:06:50;8.30;99.90
36856;DHT22;22788;51.434;6.786;2024-02-28T15:09:16;8.30;99.90
36856;DHT22;22788;51.434;6.786;2024-02-28T15:11:42;8.40;99.90
36856;DHT22;22788;51.434;6.786;2024-02-28T15:14:07;8.40;99.90
36856;DHT22;22788;51.434;6.786;2024-02-28T15:16:33;8.70;99.90
36856;DHT22;22788;51.434;6.786;2024-02-28T15:19:00;8.40;99.90
36856;DHT22;22788;51.434;6.786;2024-02-28T15:21:26;8.30;99.90
36856;DHT22;22788;51.434;6.786;2024-02-28T15:23:51;8.30;99.90
36856;DHT22;22788;51.434;6.786;2024-02-28T15:26:17;8.30;99.90
36856;DHT22;22788;51.434;6.786;2024-02-28T15:28:45;8.30;99.90
36856;DHT22;22788;51.434;6.786;2024-02-28T15:31:13;8.30;99.90
36856;DHT22;22788;51.434;6.786;2024-02-28T15:33:39;8.20;99.90
36856;DHT22;22788;51.434;6.786;2024-02-28T15:36:06;8.70;99.90
36856;DHT22;22788;51.434;6.786;2024-02-28T15:38:35;8.30;99.90
36856;DHT22;22788;51.434;6.786;2024-02-28T15:41:01;8.50;99.90
36856;DHT22;22788;51.434;6.786;2024-02-28T15:43:27;8.30;99.90
36856;DHT22;22788;51.434;6.786;2024-02-28T15:45:52;8.30;99.90
36856;DHT22;22788;51.434;6.786;2024-02-28T15:48:18;8.30;99.90
36856;DHT22;22788;51.434;6.786;2024-02-28T15:50:43;8.30;99.90
36856;DHT22;22788;51.434;6.786;2024-02-28T15:53:10;8.30;99.90
36856;DHT22;22788;51.434;6.786;2024-02-28T15:55:36;8.80;99.90